sensor_id;sensor_type;location;lat;lon;timestamp;temperature;humidity
69006;SHT31;56061;51.748;19.620;2022-08-01T00:00:05;14.34;90.65
69006;SHT31;56061;51.748;19.620;2022-08-01T00:02:38;14.33;90.82
69006;SHT31;56061;51.748;19.620;2022-08-01T00:05:06;14.32;90.89
69006;SHT31;56061;51.748;19.620;2022-08-01T00:07:35;14.31;90.90
69006;SHT31;56061;51.748;19.620;2022-08-01T00:10:06;14.30;90.93
69006;SHT31;56061;51.748;19.620;2022-08-01T00:12:37;14.29;90.95
69006;SHT31;56061;51.748;19.620;2022-08-01T00:15:04;14.28;90.89
69006;SHT31;56061;51.748;19.620;2022-08-01T00:17:33;14.26;90.89
69006;SHT31;56061;51.748;19.620;2022-08-01T00:20:00;14.24;90.84
69006;SHT31;56061;51.748;19.620;2022-08-01T00:22:28;14.22;90.97
69006;SHT31;56061;51.748;19.620;2022-08-01T00:24:57;14.20;91.01
69006;SHT31;56061;51.748;19.620;2022-08-01T00:27:23;14.18;91.13
69006;SHT31;56061;51.748;19.620;2022-08-01T00:29:50;14.17;91.10
69006;SHT31;56061;51.748;19.620;2022-08-01T00:32:37;14.15;91.11
69006;SHT31;56061;51.748;19.620;2022-08-01T00:35:04;14.14;91.20
69006;SHT31;56061;51.748;19.620;2022-08-01T00:37:31;14.13;91.15
69006;SHT31;56061;51.748;19.620;2022-08-01T00:39:57;14.13;91.17
69006;SHT31;56061;51.748;19.620;2022-08-01T00:42:24;14.11;91.10
69006;SHT31;56061;51.748;19.620;2022-08-01T00:44:50;14.09;91.10
69006;SHT31;56061;51.748;19.620;2022-08-01T00:47:17;14.04;91.04
69006;SHT31;56061;51.748;19.620;2022-08-01T00:49:44;13.98;91.10
69006;SHT31;56061;51.748;19.620;2022-08-01T00:52:10;13.94;91.13
69006;SHT31;56061;51.748;19.620;2022-08-01T00:54:37;13.91;91.17
69006;SHT31;56061;51.748;19.620;2022-08-01T00:57:05;13.87;91.20
69006;SHT31;56061;51.748;19.620;2022-08-01T00:59:36;13.84;91.32
69006;SHT31;56061;51.748;19.620;2022-08-01T01:02:06;13.84;91.41
69006;SHT31;56061;51.748;19.620;2022-08-01T01:04:41;13.82;91.39
69006;SHT31;56061;51.748;19.620;2022-08-01T01:10:16;13.84;91.62
69006;SHT31;56061;51.748;19.620;2022-08-01T01:13:16;13.84;91.66
69006;SHT31;56061;51.748;19.620;2022-08-01T01:16:15;13.90;91.83
69006;SHT31;56061;51.748;19.620;2022-08-01T01:18:55;13.93;91.77
69006;SHT31;56061;51.748;19.620;2022-08-01T01:24:35;14.01;91.75
69006;SHT31;56061;51.748;19.620;2022-08-01T01:29:54;14.05;91.71
69006;SHT31;56061;51.748;19.620;2022-08-01T01:32:36;14.04;91.58
69006;SHT31;56061;51.748;19.620;2022-08-01T01:35:14;14.00;91.64
69006;SHT31;56061;51.748;19.620;2022-08-01T01:37:46;13.98;91.74
69006;SHT31;56061;51.748;19.620;2022-08-01T01:40:17;14.00;91.80
69006;SHT31;56061;51.748;19.620;2022-08-01T01:42:45;14.01;91.77
69006;SHT31;56061;51.748;19.620;2022-08-01T01:45:13;14.03;91.80
69006;SHT31;56061;51.748;19.620;2022-08-01T01:47:42;14.05;91.67
69006;SHT31;56061;51.748;19.620;2022-08-01T01:50:12;14.06;91.58
69006;SHT31;56061;51.748;19.620;2022-08-01T01:52:40;14.07;91.64
69006;SHT31;56061;51.748;19.620;2022-08-01T01:55:10;14.10;91.58
69006;SHT31;56061;51.748;19.620;2022-08-01T01:57:40;14.13;91.62
69006;SHT31;56061;51.748;19.620;2022-08-01T02:00:11;14.14;91.53
69006;SHT31;56061;51.748;19.620;2022-08-01T02:02:40;14.15;91.44
69006;SHT31;56061;51.748;19.620;2022-08-01T02:05:10;14.15;91.39
69006;SHT31;56061;51.748;19.620;2022-08-01T02:07:39;14.10;91.33
69006;SHT31;56061;51.748;19.620;2022-08-01T02:13:03;13.99;91.34
69006;SHT31;56061;51.748;19.620;2022-08-01T02:15:33;13.97;91.45
69006;SHT31;56061;51.748;19.620;2022-08-01T02:18:24;13.96;91.40
69006;SHT31;56061;51.748;19.620;2022-08-01T02:20:52;13.96;91.40
69006;SHT31;56061;51.748;19.620;2022-08-01T02:23:23;13.94;91.40
69006;SHT31;56061;51.748;19.620;2022-08-01T02:25:59;13.95;91.42
69006;SHT31;56061;51.748;19.620;2022-08-01T02:28:49;13.96;91.35
69006;SHT31;56061;51.748;19.620;2022-08-01T02:31:25;13.95;91.29
69006;SHT31;56061;51.748;19.620;2022-08-01T02:34:05;13.96;91.33
69006;SHT31;56061;51.748;19.620;2022-08-01T02:36:36;13.95;91.29
69006;SHT31;56061;51.748;19.620;2022-08-01T02:39:08;13.94;91.25
69006;SHT31;56061;51.748;19.620;2022-08-01T02:41:39;13.92;91.20
69006;SHT31;56061;51.748;19.620;2022-08-01T02:44:10;13.89;91.10
69006;SHT31;56061;51.748;19.620;2022-08-01T02:46:51;13.86;91.04
69006;SHT31;56061;51.748;19.620;2022-08-01T02:49:24;13.85;91.09
69006;SHT31;56061;51.748;19.620;2022-08-01T02:51:53;13.85;91.04
69006;SHT31;56061;51.748;19.620;2022-08-01T02:54:22;13.84;91.07
69006;SHT31;56061;51.748;19.620;2022-08-01T02:56:50;13.82;90.95
69006;SHT31;56061;51.748;19.620;2022-08-01T02:59:20;13.79;90.90
69006;SHT31;56061;51.748;19.620;2022-08-01T03:01:53;13.78;90.96
69006;SHT31;56061;51.748;19.620;2022-08-01T03:04:23;13.75;90.85
69006;SHT31;56061;51.748;19.620;2022-08-01T03:06:51;13.72;90.82
69006;SHT31;56061;51.748;19.620;2022-08-01T03:09:21;13.67;90.92
69006;SHT31;56061;51.748;19.620;2022-08-01T03:11:49;13.64;90.93
69006;SHT31;56061;51.748;19.620;2022-08-01T03:14:17;13.61;90.93
69006;SHT31;56061;51.748;19.620;2022-08-01T03:16:48;13.59;90.93
69006;SHT31;56061;51.748;19.620;2022-08-01T03:19:18;13.57;91.07
69006;SHT31;56061;51.748;19.620;2022-08-01T03:21:49;13.58;91.19
69006;SHT31;56061;51.748;19.620;2022-08-01T03:24:18;13.60;91.20
69006;SHT31;56061;51.748;19.620;2022-08-01T03:26:47;13.62;91.14
69006;SHT31;56061;51.748;19.620;2022-08-01T03:29:18;13.64;91.10
69006;SHT31;56061;51.748;19.620;2022-08-01T03:31:50;13.61;90.98
69006;SHT31;56061;51.748;19.620;2022-08-01T03:34:18;13.56;91.05
69006;SHT31;56061;51.748;19.620;2022-08-01T03:36:52;13.54;91.13
69006;SHT31;56061;51.748;19.620;2022-08-01T03:39:29;13.54;91.23
69006;SHT31;56061;51.748;19.620;2022-08-01T03:42:07;13.57;91.22
69006;SHT31;56061;51.748;19.620;2022-08-01T03:44:42;13.59;91.23
69006;SHT31;56061;51.748;19.620;2022-08-01T03:47:21;13.61;91.24
69006;SHT31;56061;51.748;19.620;2022-08-01T03:49:55;13.64;91.20
69006;SHT31;56061;51.748;19.620;2022-08-01T03:52:24;13.67;91.28
69006;SHT31;56061;51.748;19.620;2022-08-01T03:54:55;13.72;91.30
69006;SHT31;56061;51.748;19.620;2022-08-01T03:57:25;13.79;91.22
69006;SHT31;56061;51.748;19.620;2022-08-01T04:00:03;13.84;91.27
69006;SHT31;56061;51.748;19.620;2022-08-01T04:02:35;13.89;91.09
69006;SHT31;56061;51.748;19.620;2022-08-01T04:05:04;13.89;91.03
69006;SHT31;56061;51.748;19.620;2022-08-01T04:07:32;13.93;91.12
69006;SHT31;56061;51.748;19.620;2022-08-01T04:10:02;13.95;91.02
69006;SHT31;56061;51.748;19.620;2022-08-01T04:12:30;13.99;91.07
69006;SHT31;56061;51.748;19.620;2022-08-01T04:14:58;14.03;91.10
69006;SHT31;56061;51.748;19.620;2022-08-01T04:17:25;14.07;91.04
69006;SHT31;56061;51.748;19.620;2022-08-01T04:19:52;14.13;91.00
69006;SHT31;56061;51.748;19.620;2022-08-01T04:22:18;14.20;90.99
69006;SHT31;56061;51.748;19.620;2022-08-01T04:24:49;14.27;90.97
69006;SHT31;56061;51.748;19.620;2022-08-01T04:27:24;14.34;90.95
69006;SHT31;56061;51.748;19.620;2022-08-01T04:30:17;14.40;90.80
69006;SHT31;56061;51.748;19.620;2022-08-01T04:32:50;14.43;90.69
69006;SHT31;56061;51.748;19.620;2022-08-01T04:35:21;14.43;90.60
69006;SHT31;56061;51.748;19.620;2022-08-01T04:38:12;14.43;90.68
69006;SHT31;56061;51.748;19.620;2022-08-01T04:40:44;14.44;90.70
69006;SHT31;56061;51.748;19.620;2022-08-01T04:43:12;14.48;90.76
69006;SHT31;56061;51.748;19.620;2022-08-01T04:45:40;14.52;90.78
69006;SHT31;56061;51.748;19.620;2022-08-01T04:48:09;14.58;90.78
69006;SHT31;56061;51.748;19.620;2022-08-01T04:50:41;14.65;90.73
69006;SHT31;56061;51.748;19.620;2022-08-01T04:53:14;14.70;90.61
69006;SHT31;56061;51.748;19.620;2022-08-01T04:55:44;14.76;90.60
69006;SHT31;56061;51.748;19.620;2022-08-01T04:58:12;14.80;90.50
69006;SHT31;56061;51.748;19.620;2022-08-01T05:00:44;14.87;90.59
69006;SHT31;56061;51.748;19.620;2022-08-01T05:03:11;14.95;90.56
69006;SHT31;56061;51.748;19.620;2022-08-01T05:05:38;14.99;90.57
69006;SHT31;56061;51.748;19.620;2022-08-01T05:08:05;15.03;90.53
69006;SHT31;56061;51.748;19.620;2022-08-01T05:10:32;15.06;90.59
69006;SHT31;56061;51.748;19.620;2022-08-01T05:13:00;15.07;90.58
69006;SHT31;56061;51.748;19.620;2022-08-01T05:15:27;15.10;90.67
69006;SHT31;56061;51.748;19.620;2022-08-01T05:17:54;15.14;90.66
69006;SHT31;56061;51.748;19.620;2022-08-01T05:20:20;15.19;90.60
69006;SHT31;56061;51.748;19.620;2022-08-01T05:22:47;15.23;90.56
69006;SHT31;56061;51.748;19.620;2022-08-01T05:25:14;15.28;90.60
69006;SHT31;56061;51.748;19.620;2022-08-01T05:28:00;15.34;90.70
69006;SHT31;56061;51.748;19.620;2022-08-01T05:30:28;15.39;90.65
69006;SHT31;56061;51.748;19.620;2022-08-01T05:32:55;15.46;90.62
69006;SHT31;56061;51.748;19.620;2022-08-01T05:35:22;15.52;90.42
69006;SHT31;56061;51.748;19.620;2022-08-01T05:38:09;15.58;90.39
69006;SHT31;56061;51.748;19.620;2022-08-01T05:40:40;15.62;90.31
69006;SHT31;56061;51.748;19.620;2022-08-01T05:43:06;15.69;90.31
69006;SHT31;56061;51.748;19.620;2022-08-01T05:45:33;15.77;90.36
69006;SHT31;56061;51.748;19.620;2022-08-01T05:47:59;15.83;90.29
69006;SHT31;56061;51.748;19.620;2022-08-01T05:50:35;15.89;90.28
69006;SHT31;56061;51.748;19.620;2022-08-01T05:53:02;15.96;90.22
69006;SHT31;56061;51.748;19.620;2022-08-01T05:55:28;16.01;89.98
69006;SHT31;56061;51.748;19.620;2022-08-01T05:57:55;16.08;89.87
69006;SHT31;56061;51.748;19.620;2022-08-01T06:00:22;16.14;89.55
69006;SHT31;56061;51.748;19.620;2022-08-01T06:02:49;16.21;89.41
69006;SHT31;56061;51.748;19.620;2022-08-01T06:05:15;16.27;89.21
69006;SHT31;56061;51.748;19.620;2022-08-01T06:07:42;16.35;89.28
69006;SHT31;56061;51.748;19.620;2022-08-01T06:10:09;16.41;89.38
69006;SHT31;56061;51.748;19.620;2022-08-01T06:12:36;16.49;89.52
69006;SHT31;56061;51.748;19.620;2022-08-01T06:15:04;16.55;89.23
69006;SHT31;56061;51.748;19.620;2022-08-01T06:17:32;16.63;89.20
69006;SHT31;56061;51.748;19.620;2022-08-01T06:19:59;16.72;89.00
69006;SHT31;56061;51.748;19.620;2022-08-01T06:22:26;16.77;88.50
69006;SHT31;56061;51.748;19.620;2022-08-01T06:24:53;16.80;88.19
69006;SHT31;56061;51.748;19.620;2022-08-01T06:27:20;16.83;87.97
69006;SHT31;56061;51.748;19.620;2022-08-01T06:29:48;16.90;88.17
69006;SHT31;56061;51.748;19.620;2022-08-01T06:32:19;16.97;88.03
69006;SHT31;56061;51.748;19.620;2022-08-01T06:34:52;17.01;87.66
69006;SHT31;56061;51.748;19.620;2022-08-01T06:37:19;17.08;87.51
69006;SHT31;56061;51.748;19.620;2022-08-01T06:39:46;17.14;87.39
69006;SHT31;56061;51.748;19.620;2022-08-01T06:42:12;17.22;87.40
69006;SHT31;56061;51.748;19.620;2022-08-01T06:44:41;17.30;87.23
69006;SHT31;56061;51.748;19.620;2022-08-01T06:47:07;17.37;87.32
69006;SHT31;56061;51.748;19.620;2022-08-01T06:49:34;17.44;87.11
69006;SHT31;56061;51.748;19.620;2022-08-01T06:52:01;17.51;86.88
69006;SHT31;56061;51.748;19.620;2022-08-01T06:54:29;17.56;86.76
69006;SHT31;56061;51.748;19.620;2022-08-01T06:56:56;17.63;86.66
69006;SHT31;56061;51.748;19.620;2022-08-01T06:59:22;17.68;86.46
69006;SHT31;56061;51.748;19.620;2022-08-01T07:01:49;17.76;86.26
69006;SHT31;56061;51.748;19.620;2022-08-01T07:04:16;17.82;86.12
69006;SHT31;56061;51.748;19.620;2022-08-01T07:06:43;17.91;86.09
69006;SHT31;56061;51.748;19.620;2022-08-01T07:09:09;17.99;85.59
69006;SHT31;56061;51.748;19.620;2022-08-01T07:11:39;18.06;85.68
69006;SHT31;56061;51.748;19.620;2022-08-01T07:14:06;18.14;85.34
69006;SHT31;56061;51.748;19.620;2022-08-01T07:16:33;18.20;85.02
69006;SHT31;56061;51.748;19.620;2022-08-01T07:18:59;18.24;84.69
69006;SHT31;56061;51.748;19.620;2022-08-01T07:21:26;18.30;84.68
69006;SHT31;56061;51.748;19.620;2022-08-01T07:24:06;18.40;84.74
69006;SHT31;56061;51.748;19.620;2022-08-01T07:26:43;18.51;84.60
69006;SHT31;56061;51.748;19.620;2022-08-01T07:29:20;18.63;84.57
69006;SHT31;56061;51.748;19.620;2022-08-01T07:31:49;18.73;84.37
69006;SHT31;56061;51.748;19.620;2022-08-01T07:34:16;18.83;84.01
69006;SHT31;56061;51.748;19.620;2022-08-01T07:36:42;18.93;83.51
69006;SHT31;56061;51.748;19.620;2022-08-01T07:39:09;19.00;83.11
69006;SHT31;56061;51.748;19.620;2022-08-01T07:41:36;19.07;82.90
69006;SHT31;56061;51.748;19.620;2022-08-01T07:44:22;19.16;82.95
69006;SHT31;56061;51.748;19.620;2022-08-01T07:46:53;19.23;82.37
69006;SHT31;56061;51.748;19.620;2022-08-01T07:49:20;19.32;81.61
69006;SHT31;56061;51.748;19.620;2022-08-01T07:51:47;19.41;82.24
69006;SHT31;56061;51.748;19.620;2022-08-01T07:54:34;19.50;81.29
69006;SHT31;56061;51.748;19.620;2022-08-01T07:57:02;19.52;80.78
69006;SHT31;56061;51.748;19.620;2022-08-01T07:59:29;19.59;80.61
69006;SHT31;56061;51.748;19.620;2022-08-01T08:01:56;19.67;80.14
69006;SHT31;56061;51.748;19.620;2022-08-01T08:04:24;19.74;79.91
69006;SHT31;56061;51.748;19.620;2022-08-01T08:06:51;19.83;79.85
69006;SHT31;56061;51.748;19.620;2022-08-01T08:09:19;19.94;79.48
69006;SHT31;56061;51.748;19.620;2022-08-01T08:11:46;20.01;78.90
69006;SHT31;56061;51.748;19.620;2022-08-01T08:14:17;20.06;78.16
69006;SHT31;56061;51.748;19.620;2022-08-01T08:16:44;20.11;78.03
69006;SHT31;56061;51.748;19.620;2022-08-01T08:19:12;20.17;78.06
69006;SHT31;56061;51.748;19.620;2022-08-01T08:21:39;20.24;77.92
69006;SHT31;56061;51.748;19.620;2022-08-01T08:24:06;20.27;77.58
69006;SHT31;56061;51.748;19.620;2022-08-01T08:27:01;20.28;77.31
69006;SHT31;56061;51.748;19.620;2022-08-01T08:29:30;20.32;76.83
69006;SHT31;56061;51.748;19.620;2022-08-01T08:31:59;20.35;76.40
69006;SHT31;56061;51.748;19.620;2022-08-01T08:34:27;20.40;76.01
69006;SHT31;56061;51.748;19.620;2022-08-01T08:36:55;20.46;75.84
69006;SHT31;56061;51.748;19.620;2022-08-01T08:39:24;20.54;75.75
69006;SHT31;56061;51.748;19.620;2022-08-01T08:41:52;20.62;75.30
69006;SHT31;56061;51.748;19.620;2022-08-01T08:44:19;20.69;74.81
69006;SHT31;56061;51.748;19.620;2022-08-01T08:46:50;20.77;75.20
69006;SHT31;56061;51.748;19.620;2022-08-01T08:49:19;20.86;75.24
69006;SHT31;56061;51.748;19.620;2022-08-01T08:51:50;20.92;74.85
69006;SHT31;56061;51.748;19.620;2022-08-01T08:54:20;20.99;74.37
69006;SHT31;56061;51.748;19.620;2022-08-01T08:56:56;21.11;74.05
69006;SHT31;56061;51.748;19.620;2022-08-01T08:59:25;21.25;73.23
69006;SHT31;56061;51.748;19.620;2022-08-01T09:01:52;21.37;72.62
69006;SHT31;56061;51.748;19.620;2022-08-01T09:04:20;21.49;72.19
69006;SHT31;56061;51.748;19.620;2022-08-01T09:06:52;21.64;72.06
69006;SHT31;56061;51.748;19.620;2022-08-01T09:09:20;21.83;71.48
69006;SHT31;56061;51.748;19.620;2022-08-01T09:11:48;21.99;70.30
69006;SHT31;56061;51.748;19.620;2022-08-01T09:14:23;22.13;69.00
69006;SHT31;56061;51.748;19.620;2022-08-01T09:17:00;22.25;69.39
69006;SHT31;56061;51.748;19.620;2022-08-01T09:19:38;22.40;68.91
69006;SHT31;56061;51.748;19.620;2022-08-01T09:22:20;22.53;68.68
69006;SHT31;56061;51.748;19.620;2022-08-01T09:25:09;22.68;68.35
69006;SHT31;56061;51.748;19.620;2022-08-01T09:27:37;22.82;68.01
69006;SHT31;56061;51.748;19.620;2022-08-01T09:30:18;22.93;66.54
69006;SHT31;56061;51.748;19.620;2022-08-01T09:35:43;23.15;66.38
69006;SHT31;56061;51.748;19.620;2022-08-01T09:38:14;23.26;66.94
69006;SHT31;56061;51.748;19.620;2022-08-01T09:40:47;23.36;65.95
69006;SHT31;56061;51.748;19.620;2022-08-01T09:43:17;23.40;64.99
69006;SHT31;56061;51.748;19.620;2022-08-01T09:45:45;23.42;65.06
69006;SHT31;56061;51.748;19.620;2022-08-01T09:48:15;23.51;65.75
69006;SHT31;56061;51.748;19.620;2022-08-01T09:50:47;23.61;65.33
69006;SHT31;56061;51.748;19.620;2022-08-01T09:53:20;23.70;65.21
69006;SHT31;56061;51.748;19.620;2022-08-01T09:56:01;23.81;65.01
69006;SHT31;56061;51.748;19.620;2022-08-01T10:01:27;24.02;64.55
69006;SHT31;56061;51.748;19.620;2022-08-01T10:04:14;24.11;64.09
69006;SHT31;56061;51.748;19.620;2022-08-01T10:06:44;24.18;64.02
69006;SHT31;56061;51.748;19.620;2022-08-01T10:09:26;24.28;64.26
69006;SHT31;56061;51.748;19.620;2022-08-01T10:12:05;24.40;63.61
69006;SHT31;56061;51.748;19.620;2022-08-01T10:14:34;24.49;63.67
69006;SHT31;56061;51.748;19.620;2022-08-01T10:17:11;24.57;63.25
69006;SHT31;56061;51.748;19.620;2022-08-01T10:19:44;24.64;62.85
69006;SHT31;56061;51.748;19.620;2022-08-01T10:22:12;24.69;62.03
69006;SHT31;56061;51.748;19.620;2022-08-01T10:24:44;24.69;61.54
69006;SHT31;56061;51.748;19.620;2022-08-01T10:27:14;24.70;61.45
69006;SHT31;56061;51.748;19.620;2022-08-01T10:30:02;24.71;61.18
69006;SHT31;56061;51.748;19.620;2022-08-01T10:32:49;24.70;61.53
69006;SHT31;56061;51.748;19.620;2022-08-01T10:35:20;24.67;61.31
69006;SHT31;56061;51.748;19.620;2022-08-01T10:38:08;24.67;61.67
69006;SHT31;56061;51.748;19.620;2022-08-01T10:40:39;24.67;61.77
69006;SHT31;56061;51.748;19.620;2022-08-01T10:43:09;24.65;61.47
69006;SHT31;56061;51.748;19.620;2022-08-01T10:45:37;24.63;60.67
69006;SHT31;56061;51.748;19.620;2022-08-01T10:48:09;24.65;61.15
69006;SHT31;56061;51.748;19.620;2022-08-01T10:50:46;24.71;61.64
69006;SHT31;56061;51.748;19.620;2022-08-01T10:53:19;24.74;59.80
69006;SHT31;56061;51.748;19.620;2022-08-01T10:58:30;24.77;58.39
69006;SHT31;56061;51.748;19.620;2022-08-01T11:01:14;24.83;60.54
69006;SHT31;56061;51.748;19.620;2022-08-01T11:03:45;24.92;61.21
69006;SHT31;56061;51.748;19.620;2022-08-01T11:09:00;25.15;61.29
69006;SHT31;56061;51.748;19.620;2022-08-01T11:11:31;25.18;60.61
69006;SHT31;56061;51.748;19.620;2022-08-01T11:14:03;25.20;60.21
69006;SHT31;56061;51.748;19.620;2022-08-01T11:16:36;25.26;60.10
69006;SHT31;56061;51.748;19.620;2022-08-01T11:19:06;25.35;58.91
69006;SHT31;56061;51.748;19.620;2022-08-01T11:32:49;25.75;57.88
69006;SHT31;56061;51.748;19.620;2022-08-01T11:35:37;25.78;57.56
69006;SHT31;56061;51.748;19.620;2022-08-01T11:38:39;25.78;57.75
69006;SHT31;56061;51.748;19.620;2022-08-01T11:41:12;25.83;57.41
69006;SHT31;56061;51.748;19.620;2022-08-01T11:44:20;25.83;56.75
69006;SHT31;56061;51.748;19.620;2022-08-01T11:47:04;25.87;56.42
69006;SHT31;56061;51.748;19.620;2022-08-01T11:52:15;25.96;57.03
69006;SHT31;56061;51.748;19.620;2022-08-01T11:57:30;26.12;56.64
69006;SHT31;56061;51.748;19.620;2022-08-01T12:00:22;26.18;56.89
69006;SHT31;56061;51.748;19.620;2022-08-01T12:02:56;26.25;56.43
69006;SHT31;56061;51.748;19.620;2022-08-01T12:05:26;26.33;56.11
69006;SHT31;56061;51.748;19.620;2022-08-01T12:07:56;26.38;55.70
69006;SHT31;56061;51.748;19.620;2022-08-01T12:10:24;26.45;56.14
69006;SHT31;56061;51.748;19.620;2022-08-01T12:13:12;26.48;55.97
69006;SHT31;56061;51.748;19.620;2022-08-01T12:15:39;26.48;55.88
69006;SHT31;56061;51.748;19.620;2022-08-01T12:18:06;26.49;55.10
69006;SHT31;56061;51.748;19.620;2022-08-01T12:20:35;26.53;55.77
69006;SHT31;56061;51.748;19.620;2022-08-01T12:23:19;26.55;55.79
69006;SHT31;56061;51.748;19.620;2022-08-01T12:25:50;26.56;54.96
69006;SHT31;56061;51.748;19.620;2022-08-01T12:28:18;26.52;54.52
69006;SHT31;56061;51.748;19.620;2022-08-01T12:30:46;26.52;54.93
69006;SHT31;56061;51.748;19.620;2022-08-01T12:33:19;26.54;54.33
69006;SHT31;56061;51.748;19.620;2022-08-01T12:35:47;26.56;53.96
69006;SHT31;56061;51.748;19.620;2022-08-01T12:38:15;26.58;53.81
69006;SHT31;56061;51.748;19.620;2022-08-01T12:40:45;26.59;53.15
69006;SHT31;56061;51.748;19.620;2022-08-01T12:43:20;26.55;52.82
69006;SHT31;56061;51.748;19.620;2022-08-01T12:45:54;26.52;53.06
69006;SHT31;56061;51.748;19.620;2022-08-01T12:48:26;26.58;52.64
69006;SHT31;56061;51.748;19.620;2022-08-01T12:50:54;26.65;52.04
69006;SHT31;56061;51.748;19.620;2022-08-01T12:53:24;26.78;52.60
69006;SHT31;56061;51.748;19.620;2022-08-01T12:56:06;26.95;52.41
69006;SHT31;56061;51.748;19.620;2022-08-01T12:58:35;27.12;52.76
69006;SHT31;56061;51.748;19.620;2022-08-01T13:01:03;27.37;53.62
69006;SHT31;56061;51.748;19.620;2022-08-01T13:03:33;27.58;53.15
69006;SHT31;56061;51.748;19.620;2022-08-01T13:06:00;27.72;52.61
69006;SHT31;56061;51.748;19.620;2022-08-01T13:08:30;27.85;51.93
69006;SHT31;56061;51.748;19.620;2022-08-01T13:11:00;28.01;51.25
69006;SHT31;56061;51.748;19.620;2022-08-01T13:13:38;28.18;51.46
69006;SHT31;56061;51.748;19.620;2022-08-01T13:16:07;28.33;51.70
69006;SHT31;56061;51.748;19.620;2022-08-01T13:18:41;28.43;50.85
69006;SHT31;56061;51.748;19.620;2022-08-01T13:21:17;28.43;50.56
69006;SHT31;56061;51.748;19.620;2022-08-01T13:24:05;28.36;51.27
69006;SHT31;56061;51.748;19.620;2022-08-01T13:26:41;28.34;50.84
69006;SHT31;56061;51.748;19.620;2022-08-01T13:29:16;28.31;51.24
69006;SHT31;56061;51.748;19.620;2022-08-01T13:31:45;28.29;50.87
69006;SHT31;56061;51.748;19.620;2022-08-01T13:34:14;28.29;50.51
69006;SHT31;56061;51.748;19.620;2022-08-01T13:36:41;28.35;50.96
69006;SHT31;56061;51.748;19.620;2022-08-01T13:39:14;28.38;50.47
69006;SHT31;56061;51.748;19.620;2022-08-01T13:42:00;28.37;49.66
69006;SHT31;56061;51.748;19.620;2022-08-01T13:44:26;28.33;49.52
69006;SHT31;56061;51.748;19.620;2022-08-01T13:46:53;28.26;50.07
69006;SHT31;56061;51.748;19.620;2022-08-01T13:49:20;28.29;50.06
69006;SHT31;56061;51.748;19.620;2022-08-01T13:51:48;28.45;50.31
69006;SHT31;56061;51.748;19.620;2022-08-01T13:54:17;28.61;50.80
69006;SHT31;56061;51.748;19.620;2022-08-01T13:56:44;28.78;49.44
69006;SHT31;56061;51.748;19.620;2022-08-01T13:59:11;28.92;49.11
69006;SHT31;56061;51.748;19.620;2022-08-01T14:01:38;28.96;48.82
69006;SHT31;56061;51.748;19.620;2022-08-01T14:04:05;29.04;48.63
69006;SHT31;56061;51.748;19.620;2022-08-01T14:06:32;29.16;48.41
69006;SHT31;56061;51.748;19.620;2022-08-01T14:09:02;29.28;48.10
69006;SHT31;56061;51.748;19.620;2022-08-01T14:11:43;29.37;48.70
69006;SHT31;56061;51.748;19.620;2022-08-01T14:14:11;29.31;47.54
69006;SHT31;56061;51.748;19.620;2022-08-01T14:16:38;29.16;47.18
69006;SHT31;56061;51.748;19.620;2022-08-01T14:19:05;28.99;47.32
69006;SHT31;56061;51.748;19.620;2022-08-01T14:21:32;28.95;47.26
69006;SHT31;56061;51.748;19.620;2022-08-01T14:23:59;28.98;47.90
69006;SHT31;56061;51.748;19.620;2022-08-01T14:26:25;29.02;47.61
69006;SHT31;56061;51.748;19.620;2022-08-01T14:28:52;28.99;47.09
69006;SHT31;56061;51.748;19.620;2022-08-01T14:31:18;28.95;46.26
69006;SHT31;56061;51.748;19.620;2022-08-01T14:33:45;28.85;46.38
69006;SHT31;56061;51.748;19.620;2022-08-01T14:36:11;28.82;46.72
69006;SHT31;56061;51.748;19.620;2022-08-01T14:38:56;28.71;46.95
69006;SHT31;56061;51.748;19.620;2022-08-01T14:41:26;28.58;46.91
69006;SHT31;56061;51.748;19.620;2022-08-01T14:43:53;28.49;47.67
69006;SHT31;56061;51.748;19.620;2022-08-01T14:46:20;28.44;48.29
69006;SHT31;56061;51.748;19.620;2022-08-01T14:48:46;28.41;48.80
69006;SHT31;56061;51.748;19.620;2022-08-01T14:51:13;28.35;49.21
69006;SHT31;56061;51.748;19.620;2022-08-01T14:53:40;28.33;49.64
69006;SHT31;56061;51.748;19.620;2022-08-01T14:56:12;28.38;48.92
69006;SHT31;56061;51.748;19.620;2022-08-01T14:58:39;28.44;48.34
69006;SHT31;56061;51.748;19.620;2022-08-01T15:01:05;28.45;49.29
69006;SHT31;56061;51.748;19.620;2022-08-01T15:03:32;28.47;48.08
69006;SHT31;56061;51.748;19.620;2022-08-01T15:05:59;28.59;47.81
69006;SHT31;56061;51.748;19.620;2022-08-01T15:08:25;28.74;47.81
69006;SHT31;56061;51.748;19.620;2022-08-01T15:10:52;28.69;47.33
69006;SHT31;56061;51.748;19.620;2022-08-01T15:13:19;28.52;47.33
69006;SHT31;56061;51.748;19.620;2022-08-01T15:15:45;28.38;46.53
69006;SHT31;56061;51.748;19.620;2022-08-01T15:18:13;28.26;47.14
69006;SHT31;56061;51.748;19.620;2022-08-01T15:20:39;28.15;47.22
69006;SHT31;56061;51.748;19.620;2022-08-01T15:23:06;28.02;47.40
69006;SHT31;56061;51.748;19.620;2022-08-01T15:25:33;27.85;47.64
69006;SHT31;56061;51.748;19.620;2022-08-01T15:28:07;27.69;47.69
69006;SHT31;56061;51.748;19.620;2022-08-01T15:30:36;27.57;47.72
69006;SHT31;56061;51.748;19.620;2022-08-01T15:33:02;27.46;48.13
69006;SHT31;56061;51.748;19.620;2022-08-01T15:35:29;27.33;49.25
69006;SHT31;56061;51.748;19.620;2022-08-01T15:37:56;27.21;49.19
69006;SHT31;56061;51.748;19.620;2022-08-01T15:40:22;27.12;49.55
69006;SHT31;56061;51.748;19.620;2022-08-01T15:42:49;27.05;50.26
69006;SHT31;56061;51.748;19.620;2022-08-01T15:45:18;26.93;51.09
69006;SHT31;56061;51.748;19.620;2022-08-01T15:48:07;26.80;51.34
69006;SHT31;56061;51.748;19.620;2022-08-01T15:50:33;26.71;51.16
69006;SHT31;56061;51.748;19.620;2022-08-01T15:53:00;26.66;51.83
69006;SHT31;56061;51.748;19.620;2022-08-01T15:55:27;26.64;52.37
69006;SHT31;56061;51.748;19.620;2022-08-01T15:57:54;26.65;51.86
69006;SHT31;56061;51.748;19.620;2022-08-01T16:00:20;26.67;52.00
69006;SHT31;56061;51.748;19.620;2022-08-01T16:02:47;26.68;52.20
69006;SHT31;56061;51.748;19.620;2022-08-01T16:05:14;26.69;52.39
69006;SHT31;56061;51.748;19.620;2022-08-01T16:07:45;26.71;52.61
69006;SHT31;56061;51.748;19.620;2022-08-01T16:10:26;26.75;52.91
69006;SHT31;56061;51.748;19.620;2022-08-01T16:12:54;26.77;53.05
69006;SHT31;56061;51.748;19.620;2022-08-01T16:15:21;26.85;52.11
69006;SHT31;56061;51.748;19.620;2022-08-01T16:18:02;27.00;51.74